sensor_id;sensor_type;location;lat;lon;timestamp;P1;durP1;ratioP1;P2;durP2;ratioP2
9370;SDS011;4725;48.384;8.984;2023-08-21T00:01:46;7.03;;;6.07;;
9370;SDS011;4725;48.384;8.984;2023-08-21T00:04:12;7.72;;;5.85;;
9370;SDS011;4725;48.384;8.984;2023-08-21T00:06:39;8.25;;;5.75;;
9370;SDS011;4725;48.384;8.984;2023-08-21T00:09:06;8.35;;;5.85;;
9370;SDS011;4725;48.384;8.984;2023-08-21T00:11:33;6.35;;;5.47;;
9370;SDS011;4725;48.384;8.984;2023-08-21T00:14:00;9.70;;;5.13;;
9370;SDS011;4725;48.384;8.984;2023-08-21T00:16:28;6.32;;;5.57;;
9370;SDS011;4725;48.384;8.984;2023-08-21T00:18:55;7.57;;;5.38;;
9370;SDS011;4725;48.384;8.984;2023-08-21T00:21:22;7.38;;;5.90;;
9370;SDS011;4725;48.384;8.984;2023-08-21T00:23:49;6.93;;;6.32;;
9370;SDS011;4725;48.384;8.984;2023-08-21T00:26:16;7.28;;;5.45;;
9370;SDS011;4725;48.384;8.984;2023-08-21T00:28:43;10.25;;;5.60;;
9370;SDS011;4725;48.384;8.984;2023-08-21T00:31:10;8.18;;;5.55;;
9370;SDS011;4725;48.384;8.984;2023-08-21T00:33:38;8.82;;;5.35;;
9370;SDS011;4725;48.384;8.984;2023-08-21T00:36:05;6.43;;;5.60;;
9370;SDS011;4725;48.384;8.984;2023-08-21T00:38:32;6.55;;;5.38;;
9370;SDS011;4725;48.384;8.984;2023-08-21T00:40:59;6.85;;;5.72;;
9370;SDS011;4725;48.384;8.984;2023-08-21T00:43:26;7.43;;;6.20;;
9370;SDS011;4725;48.384;8.984;2023-08-21T00:45:53;7.45;;;5.57;;
9370;SDS011;4725;48.384;8.984;2023-08-21T00:48:20;7.82;;;5.15;;
9370;SDS011;4725;48.384;8.984;2023-08-21T00:50:48;8.82;;;5.65;;
9370;SDS011;4725;48.384;8.984;2023-08-21T00:53:16;8.70;;;5.43;;
9370;SDS011;4725;48.384;8.984;2023-08-21T00:55:44;11.40;;;6.25;;
9370;SDS011;4725;48.384;8.984;2023-08-21T00:58:11;6.78;;;5.85;;
9370;SDS011;4725;48.384;8.984;2023-08-21T01:00:39;8.70;;;6.65;;
9370;SDS011;4725;48.384;8.984;2023-08-21T01:03:08;8.27;;;5.78;;
9370;SDS011;4725;48.384;8.984;2023-08-21T01:05:35;6.97;;;5.68;;
9370;SDS011;4725;48.384;8.984;2023-08-21T01:08:04;6.78;;;6.18;;
9370;SDS011;4725;48.384;8.984;2023-08-21T01:10:39;9.27;;;6.45;;
9370;SDS011;4725;48.384;8.984;2023-08-21T01:13:15;6.57;;;5.75;;
9370;SDS011;4725;48.384;8.984;2023-08-21T01:15:48;8.70;;;6.43;;
9370;SDS011;4725;48.384;8.984;2023-08-21T01:18:17;7.18;;;5.50;;
9370;SDS011;4725;48.384;8.984;2023-08-21T01:20:45;6.25;;;5.72;;
9370;SDS011;4725;48.384;8.984;2023-08-21T01:23:27;9.55;;;5.47;;
9370;SDS011;4725;48.384;8.984;2023-08-21T01:25:55;7.63;;;6.30;;
9370;SDS011;4725;48.384;8.984;2023-08-21T01:28:21;9.77;;;5.63;;
9370;SDS011;4725;48.384;8.984;2023-08-21T01:30:49;7.65;;;6.35;;
9370;SDS011;4725;48.384;8.984;2023-08-21T01:33:20;8.93;;;6.05;;
9370;SDS011;4725;48.384;8.984;2023-08-21T01:35:50;11.38;;;6.32;;
9370;SDS011;4725;48.384;8.984;2023-08-21T01:38:17;6.22;;;5.35;;
9370;SDS011;4725;48.384;8.984;2023-08-21T01:40:47;7.30;;;5.97;;
9370;SDS011;4725;48.384;8.984;2023-08-21T01:43:14;6.85;;;5.97;;
9370;SDS011;4725;48.384;8.984;2023-08-21T01:45:41;8.27;;;6.38;;
9370;SDS011;4725;48.384;8.984;2023-08-21T01:48:08;8.05;;;5.63;;
9370;SDS011;4725;48.384;8.984;2023-08-21T01:50:35;6.57;;;5.97;;
9370;SDS011;4725;48.384;8.984;2023-08-21T01:53:02;7.50;;;6.18;;
9370;SDS011;4725;48.384;8.984;2023-08-21T01:55:29;6.85;;;5.38;;
9370;SDS011;4725;48.384;8.984;2023-08-21T01:57:57;7.88;;;6.80;;
9370;SDS011;4725;48.384;8.984;2023-08-21T02:00:24;8.60;;;6.03;;
9370;SDS011;4725;48.384;8.984;2023-08-21T02:02:51;11.52;;;7.00;;
9370;SDS011;4725;48.384;8.984;2023-08-21T02:05:17;6.47;;;5.88;;
9370;SDS011;4725;48.384;8.984;2023-08-21T02:07:44;7.95;;;6.78;;
9370;SDS011;4725;48.384;8.984;2023-08-21T02:10:11;7.90;;;7.13;;
9370;SDS011;4725;48.384;8.984;2023-08-21T02:12:38;9.20;;;6.63;;
9370;SDS011;4725;48.384;8.984;2023-08-21T02:15:07;8.23;;;7.03;;
9370;SDS011;4725;48.384;8.984;2023-08-21T02:17:35;7.80;;;6.13;;
9370;SDS011;4725;48.384;8.984;2023-08-21T02:20:02;7.22;;;6.03;;
9370;SDS011;4725;48.384;8.984;2023-08-21T02:22:29;7.25;;;6.53;;
9370;SDS011;4725;48.384;8.984;2023-08-21T02:24:56;10.00;;;6.75;;
9370;SDS011;4725;48.384;8.984;2023-08-21T02:27:23;7.03;;;6.32;;
9370;SDS011;4725;48.384;8.984;2023-08-21T02:29:50;5.97;;;5.38;;
9370;SDS011;4725;48.384;8.984;2023-08-21T02:32:18;6.45;;;5.82;;
9370;SDS011;4725;48.384;8.984;2023-08-21T02:34:45;9.10;;;6.07;;
9370;SDS011;4725;48.384;8.984;2023-08-21T02:37:12;6.85;;;6.25;;
9370;SDS011;4725;48.384;8.984;2023-08-21T02:39:38;9.27;;;5.72;;
9370;SDS011;4725;48.384;8.984;2023-08-21T02:42:05;9.43;;;5.75;;
9370;SDS011;4725;48.384;8.984;2023-08-21T02:44:32;7.25;;;6.18;;
9370;SDS011;4725;48.384;8.984;2023-08-21T02:46:59;6.65;;;6.05;;
9370;SDS011;4725;48.384;8.984;2023-08-21T02:49:27;8.35;;;6.47;;
9370;SDS011;4725;48.384;8.984;2023-08-21T02:51:54;7.30;;;6.57;;
9370;SDS011;4725;48.384;8.984;2023-08-21T02:54:21;8.00;;;6.10;;
9370;SDS011;4725;48.384;8.984;2023-08-21T02:56:48;8.32;;;6.00;;
9370;SDS011;4725;48.384;8.984;2023-08-21T02:59:15;6.47;;;5.88;;
9370;SDS011;4725;48.384;8.984;2023-08-21T03:01:42;6.40;;;5.80;;
9370;SDS011;4725;48.384;8.984;2023-08-21T03:04:08;7.07;;;6.38;;
9370;SDS011;4725;48.384;8.984;2023-08-21T03:06:37;9.63;;;5.80;;
9370;SDS011;4725;48.384;8.984;2023-08-21T03:09:03;6.22;;;5.63;;
9370;SDS011;4725;48.384;8.984;2023-08-21T03:11:30;7.05;;;5.93;;
9370;SDS011;4725;48.384;8.984;2023-08-21T03:13:57;6.97;;;6.25;;
9370;SDS011;4725;48.384;8.984;2023-08-21T03:16:24;7.82;;;6.70;;
9370;SDS011;4725;48.384;8.984;2023-08-21T03:18:55;8.85;;;6.13;;
9370;SDS011;4725;48.384;8.984;2023-08-21T03:21:22;9.90;;;6.20;;
9370;SDS011;4725;48.384;8.984;2023-08-21T03:23:51;6.28;;;5.72;;
9370;SDS011;4725;48.384;8.984;2023-08-21T03:26:20;6.80;;;5.75;;
9370;SDS011;4725;48.384;8.984;2023-08-21T03:28:47;6.55;;;5.82;;
9370;SDS011;4725;48.384;8.984;2023-08-21T03:31:14;7.35;;;5.53;;
9370;SDS011;4725;48.384;8.984;2023-08-21T03:33:41;7.55;;;6.10;;
9370;SDS011;4725;48.384;8.984;2023-08-21T03:36:08;8.05;;;6.10;;
9370;SDS011;4725;48.384;8.984;2023-08-21T03:38:35;6.40;;;5.85;;
9370;SDS011;4725;48.384;8.984;2023-08-21T03:41:03;8.85;;;6.32;;
9370;SDS011;4725;48.384;8.984;2023-08-21T03:43:30;5.95;;;5.38;;
9370;SDS011;4725;48.384;8.984;2023-08-21T03:45:57;7.82;;;6.57;;
9370;SDS011;4725;48.384;8.984;2023-08-21T03:48:24;10.10;;;7.05;;
9370;SDS011;4725;48.384;8.984;2023-08-21T03:50:51;7.15;;;6.45;;
9370;SDS011;4725;48.384;8.984;2023-08-21T03:53:18;6.68;;;6.03;;
9370;SDS011;4725;48.384;8.984;2023-08-21T03:55:45;16.48;;;5.50;;
9370;SDS011;4725;48.384;8.984;2023-08-21T03:58:13;8.13;;;6.55;;
9370;SDS011;4725;48.384;8.984;2023-08-21T04:00:41;9.82;;;6.45;;
9370;SDS011;4725;48.384;8.984;2023-08-21T04:03:08;8.50;;;6.03;;
9370;SDS011;4725;48.384;8.984;2023-08-21T04:05:34;8.10;;;6.75;;
9370;SDS011;4725;48.384;8.984;2023-08-21T04:08:01;10.30;;;6.80;;
9370;SDS011;4725;48.384;8.984;2023-08-21T04:10:28;7.35;;;6.65;;
9370;SDS011;4725;48.384;8.984;2023-08-21T04:12:55;7.70;;;6.88;;
9370;SDS011;4725;48.384;8.984;2023-08-21T04:15:24;7.18;;;6.55;;
9370;SDS011;4725;48.384;8.984;2023-08-21T04:17:51;9.52;;;7.13;;
9370;SDS011;4725;48.384;8.984;2023-08-21T04:20:19;10.00;;;6.80;;
9370;SDS011;4725;48.384;8.984;2023-08-21T04:22:46;6.95;;;6.38;;
9370;SDS011;4725;48.384;8.984;2023-08-21T04:25:13;7.55;;;6.70;;
9370;SDS011;4725;48.384;8.984;2023-08-21T04:27:40;12.35;;;7.43;;
9370;SDS011;4725;48.384;8.984;2023-08-21T04:30:08;7.25;;;5.95;;
9370;SDS011;4725;48.384;8.984;2023-08-21T04:32:36;7.50;;;6.70;;
9370;SDS011;4725;48.384;8.984;2023-08-21T04:35:04;7.47;;;6.32;;
9370;SDS011;4725;48.384;8.984;2023-08-21T04:37:33;9.05;;;7.20;;
9370;SDS011;4725;48.384;8.984;2023-08-21T04:40:00;7.13;;;6.00;;
9370;SDS011;4725;48.384;8.984;2023-08-21T04:42:27;7.53;;;6.38;;
9370;SDS011;4725;48.384;8.984;2023-08-21T04:44:53;8.57;;;6.88;;
9370;SDS011;4725;48.384;8.984;2023-08-21T04:47:21;9.18;;;6.80;;
9370;SDS011;4725;48.384;8.984;2023-08-21T04:49:50;9.13;;;6.65;;
9370;SDS011;4725;48.384;8.984;2023-08-21T04:52:17;12.32;;;7.43;;
9370;SDS011;4725;48.384;8.984;2023-08-21T04:54:45;6.32;;;5.68;;
9370;SDS011;4725;48.384;8.984;2023-08-21T04:57:12;9.18;;;6.15;;
9370;SDS011;4725;48.384;8.984;2023-08-21T04:59:38;8.82;;;6.68;;
9370;SDS011;4725;48.384;8.984;2023-08-21T05:02:05;7.03;;;6.32;;
9370;SDS011;4725;48.384;8.984;2023-08-21T05:04:33;7.05;;;6.18;;
9370;SDS011;4725;48.384;8.984;2023-08-21T05:07:02;10.93;;;6.57;;
9370;SDS011;4725;48.384;8.984;2023-08-21T05:09:29;6.80;;;6.03;;
9370;SDS011;4725;48.384;8.984;2023-08-21T05:11:56;12.10;;;6.75;;
9370;SDS011;4725;48.384;8.984;2023-08-21T05:14:23;10.52;;;7.05;;
9370;SDS011;4725;48.384;8.984;2023-08-21T05:16:50;10.30;;;6.75;;
9370;SDS011;4725;48.384;8.984;2023-08-21T05:19:17;9.75;;;6.97;;
9370;SDS011;4725;48.384;8.984;2023-08-21T05:21:45;12.52;;;6.32;;
9370;SDS011;4725;48.384;8.984;2023-08-21T05:24:13;7.45;;;5.90;;
9370;SDS011;4725;48.384;8.984;2023-08-21T05:26:41;6.78;;;5.90;;
9370;SDS011;4725;48.384;8.984;2023-08-21T05:29:08;7.90;;;6.15;;
9370;SDS011;4725;48.384;8.984;2023-08-21T05:31:34;11.93;;;6.22;;
9370;SDS011;4725;48.384;8.984;2023-08-21T05:34:02;11.85;;;6.55;;
9370;SDS011;4725;48.384;8.984;2023-08-21T05:36:29;10.70;;;5.95;;
9370;SDS011;4725;48.384;8.984;2023-08-21T05:38:56;15.57;;;6.50;;
9370;SDS011;4725;48.384;8.984;2023-08-21T05:41:24;8.10;;;6.20;;
9370;SDS011;4725;48.384;8.984;2023-08-21T05:43:51;11.50;;;6.68;;
9370;SDS011;4725;48.384;8.984;2023-08-21T05:46:18;12.05;;;7.20;;
9370;SDS011;4725;48.384;8.984;2023-08-21T05:48:45;11.57;;;6.03;;
9370;SDS011;4725;48.384;8.984;2023-08-21T05:51:12;10.70;;;6.72;;
9370;SDS011;4725;48.384;8.984;2023-08-21T05:53:39;8.60;;;6.18;;
9370;SDS011;4725;48.384;8.984;2023-08-21T05:56:06;8.10;;;6.35;;
9370;SDS011;4725;48.384;8.984;2023-08-21T05:58:34;8.73;;;6.50;;
9370;SDS011;4725;48.384;8.984;2023-08-21T06:01:01;9.70;;;6.18;;
9370;SDS011;4725;48.384;8.984;2023-08-21T06:03:28;8.68;;;6.80;;
9370;SDS011;4725;48.384;8.984;2023-08-21T06:05:55;7.63;;;6.70;;
9370;SDS011;4725;48.384;8.984;2023-08-21T06:08:21;9.15;;;6.65;;
9370;SDS011;4725;48.384;8.984;2023-08-21T06:10:50;8.82;;;6.43;;
9370;SDS011;4725;48.384;8.984;2023-08-21T06:13:17;10.07;;;7.18;;
9370;SDS011;4725;48.384;8.984;2023-08-21T06:15:46;11.20;;;6.13;;
9370;SDS011;4725;48.384;8.984;2023-08-21T06:18:13;11.65;;;6.35;;
9370;SDS011;4725;48.384;8.984;2023-08-21T06:20:41;7.75;;;6.55;;
9370;SDS011;4725;48.384;8.984;2023-08-21T06:23:08;9.07;;;6.30;;
9370;SDS011;4725;48.384;8.984;2023-08-21T06:25:35;7.93;;;6.13;;
9370;SDS011;4725;48.384;8.984;2023-08-21T06:28:02;8.60;;;6.35;;
9370;SDS011;4725;48.384;8.984;2023-08-21T06:30:30;10.48;;;5.85;;
9370;SDS011;4725;48.384;8.984;2023-08-21T06:32:58;6.25;;;5.45;;
9370;SDS011;4725;48.384;8.984;2023-08-21T06:35:25;13.60;;;6.85;;
9370;SDS011;4725;48.384;8.984;2023-08-21T06:37:52;16.13;;;6.45;;
9370;SDS011;4725;48.384;8.984;2023-08-21T06:40:19;15.73;;;6.78;;
9370;SDS011;4725;48.384;8.984;2023-08-21T06:42:46;15.23;;;7.45;;
9370;SDS011;4725;48.384;8.984;2023-08-21T06:45:14;14.32;;;7.07;;
9370;SDS011;4725;48.384;8.984;2023-08-21T06:47:41;9.75;;;6.78;;
9370;SDS011;4725;48.384;8.984;2023-08-21T06:50:09;12.57;;;7.10;;
9370;SDS011;4725;48.384;8.984;2023-08-21T06:52:36;12.65;;;7.03;;
9370;SDS011;4725;48.384;8.984;2023-08-21T06:55:03;8.10;;;6.32;;
9370;SDS011;4725;48.384;8.984;2023-08-21T06:57:31;12.23;;;6.53;;
9370;SDS011;4725;48.384;8.984;2023-08-21T06:59:58;7.38;;;6.57;;
9370;SDS011;4725;48.384;8.984;2023-08-21T07:02:25;7.63;;;6.00;;
9370;SDS011;4725;48.384;8.984;2023-08-21T07:04:51;6.95;;;6.25;;
9370;SDS011;4725;48.384;8.984;2023-08-21T07:07:20;11.20;;;6.93;;
9370;SDS011;4725;48.384;8.984;2023-08-21T07:09:46;9.40;;;6.30;;
9370;SDS011;4725;48.384;8.984;2023-08-21T07:12:15;7.65;;;6.85;;
9370;SDS011;4725;48.384;8.984;2023-08-21T07:14:42;8.15;;;5.80;;
9370;SDS011;4725;48.384;8.984;2023-08-21T07:17:08;9.18;;;6.53;;
9370;SDS011;4725;48.384;8.984;2023-08-21T07:19:35;7.40;;;6.57;;
9370;SDS011;4725;48.384;8.984;2023-08-21T07:22:02;7.90;;;5.97;;
9370;SDS011;4725;48.384;8.984;2023-08-21T07:24:31;9.95;;;5.97;;
9370;SDS011;4725;48.384;8.984;2023-08-21T07:26:58;10.85;;;6.15;;
9370;SDS011;4725;48.384;8.984;2023-08-21T07:29:25;6.07;;;5.57;;
9370;SDS011;4725;48.384;8.984;2023-08-21T07:31:51;6.53;;;5.57;;
9370;SDS011;4725;48.384;8.984;2023-08-21T07:34:18;10.15;;;5.93;;
9370;SDS011;4725;48.384;8.984;2023-08-21T07:36:45;9.05;;;6.07;;
9370;SDS011;4725;48.384;8.984;2023-08-21T07:39:12;6.57;;;5.95;;
9370;SDS011;4725;48.384;8.984;2023-08-21T07:41:40;8.18;;;6.25;;
9370;SDS011;4725;48.384;8.984;2023-08-21T07:44:07;6.75;;;5.68;;
9370;SDS011;4725;48.384;8.984;2023-08-21T07:46:34;7.18;;;6.38;;
9370;SDS011;4725;48.384;8.984;2023-08-21T07:49:01;11.27;;;6.55;;
9370;SDS011;4725;48.384;8.984;2023-08-21T07:51:28;8.20;;;6.50;;
9370;SDS011;4725;48.384;8.984;2023-08-21T07:53:55;7.05;;;6.43;;
9370;SDS011;4725;48.384;8.984;2023-08-21T07:56:22;9.55;;;6.90;;
9370;SDS011;4725;48.384;8.984;2023-08-21T07:58:50;6.68;;;5.72;;
9370;SDS011;4725;48.384;8.984;2023-08-21T08:01:17;6.95;;;5.47;;
9370;SDS011;4725;48.384;8.984;2023-08-21T08:03:45;8.70;;;5.78;;
9370;SDS011;4725;48.384;8.984;2023-08-21T08:06:14;9.85;;;6.53;;
9370;SDS011;4725;48.384;8.984;2023-08-21T08:08:40;8.27;;;6.22;;
9370;SDS011;4725;48.384;8.984;2023-08-21T08:11:07;8.38;;;5.75;;
9370;SDS011;4725;48.384;8.984;2023-08-21T08:13:34;7.22;;;6.45;;
9370;SDS011;4725;48.384;8.984;2023-08-21T08:16:03;8.82;;;6.25;;
9370;SDS011;4725;48.384;8.984;2023-08-21T08:18:30;10.98;;;6.20;;
9370;SDS011;4725;48.384;8.984;2023-08-21T08:20:56;8.20;;;5.90;;
9370;SDS011;4725;48.384;8.984;2023-08-21T08:23:26;10.02;;;6.93;;
9370;SDS011;4725;48.384;8.984;2023-08-21T08:25:53;9.82;;;6.57;;
9370;SDS011;4725;48.384;8.984;2023-08-21T08:28:20;14.57;;;6.38;;
9370;SDS011;4725;48.384;8.984;2023-08-21T08:30:47;8.10;;;5.78;;
9370;SDS011;4725;48.384;8.984;2023-08-21T08:33:15;10.90;;;6.45;;
9370;SDS011;4725;48.384;8.984;2023-08-21T08:35:42;9.57;;;6.93;;
9370;SDS011;4725;48.384;8.984;2023-08-21T08:38:09;7.88;;;5.95;;
9370;SDS011;4725;48.384;8.984;2023-08-21T08:40:37;12.60;;;5.97;;
9370;SDS011;4725;48.384;8.984;2023-08-21T08:43:10;12.25;;;6.70;;
9370;SDS011;4725;48.384;8.984;2023-08-21T08:45:37;16.13;;;8.00;;
9370;SDS011;4725;48.384;8.984;2023-08-21T08:48:06;6.65;;;5.80;;
9370;SDS011;4725;48.384;8.984;2023-08-21T09:08:54;6.68;;;6.07;;
9370;SDS011;4725;48.384;8.984;2023-08-21T09:11:22;8.65;;;6.10;;
9370;SDS011;4725;48.384;8.984;2023-08-21T09:13:49;10.52;;;7.00;;
9370;SDS011;4725;48.384;8.984;2023-08-21T09:16:17;10.68;;;6.80;;
9370;SDS011;4725;48.384;8.984;2023-08-21T09:18:47;15.52;;;10.10;;
9370;SDS011;4725;48.384;8.984;2023-08-21T09:21:17;8.85;;;6.18;;
9370;SDS011;4725;48.384;8.984;2023-08-21T09:23:45;10.30;;;5.90;;
9370;SDS011;4725;48.384;8.984;2023-08-21T09:26:19;5.90;;;5.32;;
9370;SDS011;4725;48.384;8.984;2023-08-21T09:28:46;6.03;;;5.43;;
9370;SDS011;4725;48.384;8.984;2023-08-21T09:31:14;10.55;;;6.50;;
9370;SDS011;4725;48.384;8.984;2023-08-21T09:33:41;7.60;;;6.35;;
9370;SDS011;4725;48.384;8.984;2023-08-21T09:36:08;8.32;;;6.13;;
9370;SDS011;4725;48.384;8.984;2023-08-21T09:38:38;9.95;;;5.75;;
9370;SDS011;4725;48.384;8.984;2023-08-21T09:41:06;10.00;;;6.32;;
9370;SDS011;4725;48.384;8.984;2023-08-21T09:43:37;8.05;;;6.00;;
9370;SDS011;4725;48.384;8.984;2023-08-21T09:46:07;7.75;;;6.00;;
9370;SDS011;4725;48.384;8.984;2023-08-21T09:48:34;8.85;;;5.43;;
9370;SDS011;4725;48.384;8.984;2023-08-21T09:51:02;8.73;;;5.80;;
9370;SDS011;4725;48.384;8.984;2023-08-21T09:53:30;9.25;;;4.88;;
9370;SDS011;4725;48.384;8.984;2023-08-21T09:55:57;7.80;;;5.47;;
9370;SDS011;4725;48.384;8.984;2023-08-21T09:58:28;7.57;;;4.47;;
9370;SDS011;4725;48.384;8.984;2023-08-21T10:00:57;5.78;;;4.32;;
9370;SDS011;4725;48.384;8.984;2023-08-21T10:03:25;6.70;;;4.72;;
9370;SDS011;4725;48.384;8.984;2023-08-21T10:05:53;5.22;;;4.78;;
9370;SDS011;4725;48.384;8.984;2023-08-21T10:08:23;8.88;;;6.00;;
9370;SDS011;4725;48.384;8.984;2023-08-21T10:10:51;8.90;;;4.68;;
9370;SDS011;4725;48.384;8.984;2023-08-21T10:13:18;8.77;;;4.93;;
9370;SDS011;4725;48.384;8.984;2023-08-21T10:15:46;7.60;;;5.53;;
9370;SDS011;4725;48.384;8.984;2023-08-21T10:18:21;8.07;;;5.07;;
9370;SDS011;4725;48.384;8.984;2023-08-21T10:20:50;8.77;;;5.68;;
9370;SDS011;4725;48.384;8.984;2023-08-21T10:23:23;6.97;;;5.10;;
9370;SDS011;4725;48.384;8.984;2023-08-21T10:25:55;7.05;;;5.55;;
9370;SDS011;4725;48.384;8.984;2023-08-21T10:28:22;12.20;;;5.13;;
9370;SDS011;4725;48.384;8.984;2023-08-21T10:30:49;8.00;;;5.13;;
9370;SDS011;4725;48.384;8.984;2023-08-21T10:33:16;6.72;;;5.22;;
9370;SDS011;4725;48.384;8.984;2023-08-21T10:35:46;7.00;;;4.13;;
9370;SDS011;4725;48.384;8.984;2023-08-21T10:38:13;7.78;;;5.05;;
9370;SDS011;4725;48.384;8.984;2023-08-21T10:41:03;6.07;;;5.57;;
9370;SDS011;4725;48.384;8.984;2023-08-21T10:43:38;7.45;;;4.80;;
9370;SDS011;4725;48.384;8.984;2023-08-21T10:46:05;6.25;;;4.90;;
9370;SDS011;4725;48.384;8.984;2023-08-21T10:48:33;6.47;;;4.18;;
9370;SDS011;4725;48.384;8.984;2023-08-21T10:51:02;7.70;;;4.85;;
9370;SDS011;4725;48.384;8.984;2023-08-21T10:53:30;5.43;;;4.40;;
9370;SDS011;4725;48.384;8.984;2023-08-21T10:56:00;6.32;;;4.00;;
9370;SDS011;4725;48.384;8.984;2023-08-21T10:58:28;5.25;;;4.65;;
9370;SDS011;4725;48.384;8.984;2023-08-21T11:01:00;8.63;;;4.10;;
9370;SDS011;4725;48.384;8.984;2023-08-21T11:03:28;6.60;;;3.63;;
9370;SDS011;4725;48.384;8.984;2023-08-21T11:06:03;5.47;;;4.25;;
9370;SDS011;4725;48.384;8.984;2023-08-21T11:08:31;4.63;;;4.05;;
9370;SDS011;4725;48.384;8.984;2023-08-21T11:10:58;5.45;;;3.83;;
9370;SDS011;4725;48.384;8.984;2023-08-21T11:13:25;6.78;;;5.00;;
9370;SDS011;4725;48.384;8.984;2023-08-21T11:15:58;6.05;;;4.03;;
9370;SDS011;4725;48.384;8.984;2023-08-21T11:18:32;5.82;;;4.65;;
9370;SDS011;4725;48.384;8.984;2023-08-21T11:21:07;5.15;;;4.60;;
9370;SDS011;4725;48.384;8.984;2023-08-21T11:23:36;5.65;;;5.13;;
9370;SDS011;4725;48.384;8.984;2023-08-21T11:26:04;8.10;;;4.95;;
9370;SDS011;4725;48.384;8.984;2023-08-21T11:28:32;6.28;;;4.60;;
9370;SDS011;4725;48.384;8.984;2023-08-21T11:30:59;14.93;;;4.72;;
9370;SDS011;4725;48.384;8.984;2023-08-21T11:33:26;5.80;;;4.30;;
9370;SDS011;4725;48.384;8.984;2023-08-21T11:35:54;5.72;;;4.60;;
9370;SDS011;4725;48.384;8.984;2023-08-21T11:38:24;6.05;;;5.18;;
9370;SDS011;4725;48.384;8.984;2023-08-21T11:40:53;5.60;;;4.80;;
9370;SDS011;4725;48.384;8.984;2023-08-21T11:43:21;5.97;;;4.13;;
9370;SDS011;4725;48.384;8.984;2023-08-21T11:45:48;6.75;;;3.80;;
9370;SDS011;4725;48.384;8.984;2023-08-21T11:48:15;8.10;;;5.05;;
9370;SDS011;4725;48.384;8.984;2023-08-21T11:50:47;10.77;;;4.05;;
9370;SDS011;4725;48.384;8.984;2023-08-21T11:53:14;7.07;;;4.07;;
9370;SDS011;4725;48.384;8.984;2023-08-21T11:55:42;5.72;;;3.80;;
9370;SDS011;4725;48.384;8.984;2023-08-21T11:58:10;6.72;;;4.05;;
9370;SDS011;4725;48.384;8.984;2023-08-21T12:00:36;7.00;;;4.90;;
9370;SDS011;4725;48.384;8.984;2023-08-21T12:03:06;5.32;;;3.55;;
9370;SDS011;4725;48.384;8.984;2023-08-21T12:05:35;9.60;;;4.60;;
9370;SDS011;4725;48.384;8.984;2023-08-21T12:08:09;9.65;;;4.22;;
9370;SDS011;4725;48.384;8.984;2023-08-21T12:10:36;4.25;;;3.70;;
9370;SDS011;4725;48.384;8.984;2023-08-21T12:13:05;5.30;;;4.55;;
9370;SDS011;4725;48.384;8.984;2023-08-21T12:15:31;7.05;;;3.78;;
9370;SDS011;4725;48.384;8.984;2023-08-21T12:18:00;6.90;;;3.92;;
9370;SDS011;4725;48.384;8.984;2023-08-21T12:20:26;6.78;;;3.78;;
9370;SDS011;4725;48.384;8.984;2023-08-21T12:22:54;6.28;;;3.70;;
9370;SDS011;4725;48.384;8.984;2023-08-21T12:25:21;9.38;;;4.70;;
9370;SDS011;4725;48.384;8.984;2023-08-21T12:27:49;6.95;;;3.90;;
9370;SDS011;4725;48.384;8.984;2023-08-21T12:30:17;7.22;;;4.20;;
9370;SDS011;4725;48.384;8.984;2023-08-21T12:32:44;7.80;;;3.58;;
9370;SDS011;4725;48.384;8.984;2023-08-21T12:35:12;6.40;;;3.70;;
9370;SDS011;4725;48.384;8.984;2023-08-21T12:37:39;5.72;;;3.20;;
9370;SDS011;4725;48.384;8.984;2023-08-21T12:40:06;6.43;;;4.10;;
9370;SDS011;4725;48.384;8.984;2023-08-21T12:42:34;6.95;;;3.95;;
9370;SDS011;4725;48.384;8.984;2023-08-21T12:45:01;5.50;;;3.20;;
9370;SDS011;4725;48.384;8.984;2023-08-21T12:47:29;3.83;;;3.47;;
9370;SDS011;4725;48.384;8.984;2023-08-21T12:49:56;3.83;;;3.50;;
9370;SDS011;4725;48.384;8.984;2023-08-21T12:52:23;4.32;;;3.22;;
9370;SDS011;4725;48.384;8.984;2023-08-21T12:54:50;3.30;;;3.03;;
9370;SDS011;4725;48.384;8.984;2023-08-21T12:57:18;6.07;;;3.15;;
9370;SDS011;4725;48.384;8.984;2023-08-21T12:59:49;5.72;;;3.65;;
9370;SDS011;4725;48.384;8.984;2023-08-21T13:02:16;4.90;;;3.15;;
9370;SDS011;4725;48.384;8.984;2023-08-21T13:04:51;3.97;;;3.25;;
9370;SDS011;4725;48.384;8.984;2023-08-21T13:07:19;3.75;;;3.20;;
9370;SDS011;4725;48.384;8.984;2023-08-21T13:09:46;3.83;;;3.20;;
9370;SDS011;4725;48.384;8.984;2023-08-21T13:12:14;4.97;;;3.40;;
9370;SDS011;4725;48.384;8.984;2023-08-21T13:14:42;4.22;;;3.78;;
9370;SDS011;4725;48.384;8.984;2023-08-21T13:17:14;7.65;;;3.35;;
9370;SDS011;4725;48.384;8.984;2023-08-21T13:19:42;4.32;;;3.92;;
9370;SDS011;4725;48.384;8.984;2023-08-21T13:22:16;4.80;;;3.42;;
9370;SDS011;4725;48.384;8.984;2023-08-21T13:24:44;3.70;;;3.33;;
9370;SDS011;4725;48.384;8.984;2023-08-21T13:27:12;5.07;;;3.45;;
9370;SDS011;4725;48.384;8.984;2023-08-21T13:29:39;4.22;;;3.60;;
9370;SDS011;4725;48.384;8.984;2023-08-21T13:32:06;4.95;;;3.33;;
9370;SDS011;4725;48.384;8.984;2023-08-21T13:34:33;5.03;;;3.45;;
9370;SDS011;4725;48.384;8.984;2023-08-21T13:37:00;6.03;;;3.53;;
9370;SDS011;4725;48.384;8.984;2023-08-21T13:39:29;4.05;;;3.47;;
9370;SDS011;4725;48.384;8.984;2023-08-21T13:41:56;3.47;;;3.17;;
9370;SDS011;4725;48.384;8.984;2023-08-21T13:44:23;5.43;;;3.33;;
9370;SDS011;4725;48.384;8.984;2023-08-21T13:46:50;4.78;;;3.50;;
9370;SDS011;4725;48.384;8.984;2023-08-21T13:49:17;5.07;;;3.97;;
9370;SDS011;4725;48.384;8.984;2023-08-21T13:51:43;4.88;;;4.28;;
9370;SDS011;4725;48.384;8.984;2023-08-21T13:54:10;5.45;;;3.40;;
9370;SDS011;4725;48.384;8.984;2023-08-21T13:56:39;4.88;;;3.70;;
9370;SDS011;4725;48.384;8.984;2023-08-21T13:59:05;4.03;;;3.63;;
9370;SDS011;4725;48.384;8.984;2023-08-21T14:01:33;3.00;;;2.80;;
9370;SDS011;4725;48.384;8.984;2023-08-21T14:04:00;3.85;;;3.20;;
9370;SDS011;4725;48.384;8.984;2023-08-21T14:06:27;5.10;;;3.08;;
9370;SDS011;4725;48.384;8.984;2023-08-21T14:08:54;4.65;;;3.22;;
9370;SDS011;4725;48.384;8.984;2023-08-21T14:11:21;5.13;;;2.97;;
9370;SDS011;4725;48.384;8.984;2023-08-21T14:13:50;5.90;;;3.50;;
9370;SDS011;4725;48.384;8.984;2023-08-21T14:16:16;5.03;;;3.40;;
9370;SDS011;4725;48.384;8.984;2023-08-21T14:18:43;4.93;;;3.80;;
9370;SDS011;4725;48.384;8.984;2023-08-21T14:21:10;6.05;;;3.90;;
9370;SDS011;4725;48.384;8.984;2023-08-21T14:23:37;6.70;;;3.50;;
9370;SDS011;4725;48.384;8.984;2023-08-21T14:26:04;4.97;;;3.97;;
9370;SDS011;4725;48.384;8.984;2023-08-21T14:28:31;6.40;;;3.90;;
9370;SDS011;4725;48.384;8.984;2023-08-21T14:30:59;4.30;;;3.35;;
9370;SDS011;4725;48.384;8.984;2023-08-21T14:33:26;6.88;;;3.40;;
9370;SDS011;4725;48.384;8.984;2023-08-21T14:35:53;8.23;;;4.40;;
9370;SDS011;4725;48.384;8.984;2023-08-21T14:38:20;5.05;;;3.75;;
9370;SDS011;4725;48.384;8.984;2023-08-21T14:40:47;3.50;;;3.08;;
9370;SDS011;4725;48.384;8.984;2023-08-21T14:43:14;3.08;;;2.88;;
9370;SDS011;4725;48.384;8.984;2023-08-21T14:45:41;5.07;;;3.10;;
9370;SDS011;4725;48.384;8.984;2023-08-21T14:48:09;3.67;;;3.15;;
9370;SDS011;4725;48.384;8.984;2023-08-21T14:50:36;6.20;;;3.45;;
9370;SDS011;4725;48.384;8.984;2023-08-21T14:53:03;3.97;;;3.20;;
9370;SDS011;4725;48.384;8.984;2023-08-21T14:55:29;4.35;;;3.25;;
9370;SDS011;4725;48.384;8.984;2023-08-21T14:57:57;3.95;;;2.80;;
9370;SDS011;4725;48.384;8.984;2023-08-21T15:00:23;3.75;;;3.03;;
9370;SDS011;4725;48.384;8.984;2023-08-21T15:02:50;4.63;;;2.63;;
9370;SDS011;4725;48.384;8.984;2023-08-21T15:05:19;5.00;;;2.75;;
9370;SDS011;4725;48.384;8.984;2023-08-21T15:07:46;3.30;;;2.60;;
9370;SDS011;4725;48.384;8.984;2023-08-21T15:10:13;3.42;;;3.10;;
9370;SDS011;4725;48.384;8.984;2023-08-21T15:12:40;5.13;;;3.60;;
9370;SDS011;4725;48.384;8.984;2023-08-21T15:15:08;5.20;;;3.28;;
9370;SDS011;4725;48.384;8.984;2023-08-21T15:17:36;3.30;;;2.92;;
9370;SDS011;4725;48.384;8.984;2023-08-21T15:20:03;10.85;;;3.45;;
9370;SDS011;4725;48.384;8.984;2023-08-21T15:22:33;8.05;;;2.95;;
9370;SDS011;4725;48.384;8.984;2023-08-21T15:25:00;5.38;;;3.40;;
9370;SDS011;4725;48.384;8.984;2023-08-21T15:27:28;5.75;;;3.28;;
9370;SDS011;4725;48.384;8.984;2023-08-21T15:29:55;6.70;;;3.10;;
9370;SDS011;4725;48.384;8.984;2023-08-21T15:32:22;3.05;;;2.67;;
9370;SDS011;4725;48.384;8.984;2023-08-21T15:34:48;5.93;;;2.90;;